Frazer, Pennsylvania
Current Conditions -  °F | °C
As of 3:54 AM on Saturday 20 Dec 2014 (Local Time) from KPTW Reporting Station
Overcast Overcast  
Wind Chill: 24°   Ceiling: 2700
Heat Index: 31°   Visibility: 10mi
Dew Point: 21°   Wind: 7mph
Humidity: 67%   Direction: 350°N
Pressure: 30.23"   Gusts: NA
Location:  40.0462°N, 75.5339°W
Report Text: KPTW 200854Z AUTO 35006KT 10SM OVC027 M01/M06 A3023 RMK AO2 SLP239 T10061061 51015
Loading
Personal Weather Stations






























Interactive Weather Map New forecast layout! Learn more

10-Day Weather Forecast

Advertisements
Track Severe Weather on mobile